createdAt,value
2024-04-18T00:02:19.407Z,101608.40
2024-04-18T00:04:48.412Z,101611.40
2024-04-18T00:07:16.010Z,101609.80
2024-04-18T00:09:42.963Z,101610.80
2024-04-18T00:12:10.568Z,101604.80
2024-04-18T00:14:37.299Z,101605.80
2024-04-18T00:17:04.495Z,101604.40
2024-04-18T00:19:32.674Z,101605.80
2024-04-18T00:22:00.276Z,101606.00
2024-04-18T00:24:32.375Z,101602.20
2024-04-18T00:26:59.017Z,101607.20
2024-04-18T00:29:25.637Z,101599.60
2024-04-18T00:31:53.011Z,101607.00
2024-04-18T00:34:19.859Z,101608.80
2024-04-18T00:36:47.160Z,101608.80
2024-04-18T00:39:19.420Z,101613.80
2024-04-18T00:41:46.819Z,101620.80
2024-04-18T00:44:14.811Z,101621.00
2024-04-18T00:46:41.540Z,101622.20
2024-04-18T00:49:08.755Z,101626.80
2024-04-18T00:51:35.946Z,101632.00
2024-04-18T00:54:05.087Z,101629.00
2024-04-18T00:56:34.021Z,101631.60
2024-04-18T00:59:03.895Z,101630.80
2024-04-18T01:01:31.699Z,101631.60
2024-04-18T01:03:59.890Z,101627.60
2024-04-18T01:06:31.600Z,101628.60
2024-04-18T01:09:00.920Z,101630.80
2024-04-18T01:11:27.646Z,101635.60
2024-04-18T01:14:11.095Z,101630.60
2024-04-18T01:16:45.897Z,101630.40
2024-04-18T01:19:21.173Z,101630.80
2024-04-18T01:21:48.473Z,101636.60
2024-04-18T01:24:15.667Z,101633.80
2024-04-18T01:26:44.438Z,101635.00
2024-04-18T01:29:11.615Z,101627.00
2024-04-18T01:31:43.066Z,101632.00
2024-04-18T01:34:10.751Z,101633.40
2024-04-18T01:36:40.671Z,101637.40
2024-04-18T01:39:08.855Z,101636.00
2024-04-18T01:41:37.277Z,101638.20
2024-04-18T01:44:04.505Z,101635.80
2024-04-18T01:46:34.148Z,101644.80
2024-04-18T01:49:00.847Z,101641.40
2024-04-18T01:51:29.084Z,101643.00
2024-04-18T01:53:56.159Z,101644.80
2024-04-18T01:56:23.911Z,101645.60
2024-04-18T01:58:50.450Z,101648.20
2024-04-18T02:01:25.073Z,101644.80
2024-04-18T02:03:52.596Z,101638.80
2024-04-18T02:06:21.150Z,101640.20
2024-04-18T02:08:49.533Z,101637.20
2024-04-18T02:11:16.275Z,101636.20
2024-04-18T02:13:45.439Z,101629.80
2024-04-18T02:16:18.755Z,101633.60
2024-04-18T02:18:46.686Z,101635.80
2024-04-18T02:21:13.771Z,101632.40
2024-04-18T02:23:42.637Z,101631.80
2024-04-18T02:26:09.591Z,101633.80
2024-04-18T02:28:37.629Z,101630.60
2024-04-18T02:31:10.434Z,101633.00
2024-04-18T02:33:37.051Z,101639.20
2024-04-18T02:36:04.316Z,101636.40
2024-04-18T02:38:33.283Z,101644.00
2024-04-18T02:41:08.079Z,101639.80
2024-04-18T02:43:38.421Z,101644.80
2024-04-18T02:46:06.063Z,101640.00
2024-04-18T02:48:34.377Z,101645.00
2024-04-18T02:51:01.384Z,101641.80
2024-04-18T02:53:28.261Z,101639.40
2024-04-18T02:55:56.005Z,101643.40
2024-04-18T02:58:23.390Z,101645.60
2024-04-18T03:00:50.828Z,101642.20
2024-04-18T03:03:18.814Z,101640.60
2024-04-18T03:05:45.569Z,101637.40
2024-04-18T03:08:12.104Z,101642.00
2024-04-18T03:10:49.668Z,101640.00
2024-04-18T03:13:18.741Z,101639.40
2024-04-18T03:15:48.424Z,101636.80
2024-04-18T03:18:18.981Z,101639.20
2024-04-18T03:20:53.652Z,101646.20
2024-04-18T03:23:20.905Z,101646.80
2024-04-18T03:25:48.738Z,101645.00
2024-04-18T03:28:16.729Z,101641.80
2024-04-18T03:30:43.773Z,101650.80
2024-04-18T03:33:10.614Z,101648.00
2024-04-18T03:35:42.361Z,101650.60
2024-04-18T03:38:11.658Z,101652.20
2024-04-18T03:40:38.770Z,101658.60
2024-04-18T03:43:05.551Z,101658.40
2024-04-18T03:45:35.870Z,101661.20
2024-04-18T03:48:02.603Z,101661.40
2024-04-18T03:50:29.157Z,101658.20
2024-04-18T03:52:57.918Z,101667.40
2024-04-18T03:55:25.266Z,101662.00
2024-04-18T03:57:52.055Z,101655.60
2024-04-18T04:00:19.244Z,101654.60
2024-04-18T04:02:46.080Z,101661.20
2024-04-18T04:05:14.881Z,101658.40
2024-04-18T04:07:42.500Z,101652.60
2024-04-18T04:10:14.632Z,101656.00
2024-04-18T04:12:42.786Z,101655.20
2024-04-18T04:15:13.203Z,101655.60
2024-04-18T04:17:48.636Z,101650.80
2024-04-18T04:20:15.676Z,101648.60
2024-04-18T04:22:43.259Z,101649.00
2024-04-18T04:25:10.680Z,101654.00
2024-04-18T04:27:37.446Z,101654.80
2024-04-18T04:30:06.932Z,101659.40
2024-04-18T04:32:35.113Z,101662.60
2024-04-18T04:35:02.665Z,101661.20
2024-04-18T04:37:31.515Z,101665.40
2024-04-18T04:39:58.211Z,101669.60
2024-04-18T04:42:24.958Z,101669.60
2024-04-18T04:44:53.512Z,101672.80
2024-04-18T04:47:20.338Z,101676.00
2024-04-18T04:49:47.766Z,101669.20
2024-04-18T04:52:15.940Z,101671.60
2024-04-18T04:54:44.476Z,101678.00
2024-04-18T04:57:14.765Z,101679.20
2024-04-18T04:59:44.678Z,101679.60
2024-04-18T05:02:11.201Z,101679.00
2024-04-18T05:04:38.247Z,101682.80
2024-04-18T05:07:04.882Z,101685.20
2024-04-18T05:09:31.358Z,101682.00
2024-04-18T05:12:02.229Z,101687.20
2024-04-18T05:14:30.943Z,101692.40
2024-04-18T05:17:09.078Z,101691.00
2024-04-18T05:19:38.354Z,101695.60
2024-04-18T05:22:04.752Z,101692.00
2024-04-18T05:24:34.656Z,101691.60
2024-04-18T05:27:05.316Z,101693.00
2024-04-18T05:29:51.674Z,101692.60
2024-04-18T05:32:18.640Z,101702.00
2024-04-18T05:34:48.781Z,101702.20
2024-04-18T05:37:15.619Z,101698.60
2024-04-18T05:39:43.271Z,101699.60
2024-04-18T05:42:11.189Z,101701.60
2024-04-18T05:44:40.983Z,101707.00
2024-04-18T05:47:16.842Z,101703.40
2024-04-18T05:49:43.741Z,101706.00
2024-04-18T05:52:10.914Z,101704.60
2024-04-18T05:54:38.321Z,101708.20
2024-04-18T05:57:09.390Z,101711.60
2024-04-18T05:59:37.516Z,101707.40
2024-04-18T06:02:04.210Z,101709.20
2024-04-18T06:04:30.615Z,101703.40
2024-04-18T06:06:59.513Z,101709.60
2024-04-18T06:09:26.252Z,101708.60
2024-04-18T06:11:54.499Z,101708.80
2024-04-18T06:14:21.278Z,101705.80
2024-04-18T06:16:48.758Z,101705.20
2024-04-18T06:19:15.361Z,101706.80
2024-04-18T06:21:44.365Z,101710.00
2024-04-18T06:24:12.978Z,101705.40
2024-04-18T06:26:42.490Z,101704.00
2024-04-18T06:29:11.863Z,101694.60
2024-04-18T06:31:42.588Z,101692.60
2024-04-18T06:34:09.085Z,101692.60
2024-04-18T06:36:35.963Z,101693.80
2024-04-18T06:39:02.570Z,101695.00
2024-04-18T06:41:29.088Z,101695.60
2024-04-18T06:43:57.622Z,101699.20
2024-04-18T06:46:26.810Z,101700.40
2024-04-18T06:48:54.611Z,101698.80
2024-04-18T06:51:21.401Z,101697.20
2024-04-18T06:53:50.270Z,101698.20
2024-04-18T06:56:23.127Z,101693.60
2024-04-18T06:58:53.605Z,101695.80
2024-04-18T07:01:25.013Z,101688.00
2024-04-18T07:06:36.549Z,101685.20
2024-04-18T07:09:04.220Z,101684.00
2024-04-18T07:11:33.590Z,101682.20
2024-04-18T07:14:02.711Z,101680.40
2024-04-18T07:16:37.062Z,101689.20
2024-04-18T07:19:05.781Z,101681.80
2024-04-18T07:21:33.790Z,101681.20
2024-04-18T07:24:03.090Z,101684.20
2024-04-18T07:26:29.869Z,101683.00
2024-04-18T07:28:57.058Z,101680.60
2024-04-18T07:31:31.167Z,101681.60
2024-04-18T07:33:57.675Z,101682.00
2024-04-18T07:36:24.602Z,101681.60
2024-04-18T07:38:51.324Z,101679.00
2024-04-18T07:41:24.234Z,101679.20
2024-04-18T07:43:52.926Z,101681.20
2024-04-18T07:46:19.800Z,101681.60
2024-04-18T07:48:48.795Z,101681.00
2024-04-18T07:51:15.397Z,101680.80
2024-04-18T07:53:42.704Z,101681.80
2024-04-18T07:56:09.877Z,101677.80
2024-04-18T07:58:38.630Z,101676.80
2024-04-18T08:01:07.698Z,101684.80
2024-04-18T08:03:39.129Z,101682.60
2024-04-18T08:06:09.740Z,101679.80
2024-04-18T08:08:40.943Z,101675.60
2024-04-18T08:13:47.717Z,101672.20
2024-04-18T08:16:19.181Z,101676.60
2024-04-18T08:18:48.956Z,101679.00
2024-04-18T08:21:15.414Z,101671.80
2024-04-18T08:23:51.706Z,101670.40
2024-04-18T08:26:18.870Z,101670.20
2024-04-18T08:28:45.880Z,101670.00
2024-04-18T08:31:12.300Z,101671.00
2024-04-18T08:33:40.050Z,101674.00
2024-04-18T08:36:10.325Z,101671.80
2024-04-18T08:38:37.702Z,101671.60
2024-04-18T08:41:11.669Z,101669.00
2024-04-18T08:43:41.138Z,101671.60
2024-04-18T08:46:12.923Z,101664.40
2024-04-18T08:48:41.201Z,101664.80
2024-04-18T08:51:08.740Z,101665.20
2024-04-18T08:53:35.757Z,101665.40
2024-04-18T08:56:09.246Z,101673.40
2024-04-18T08:58:38.286Z,101668.80
2024-04-18T09:01:05.555Z,101668.40
2024-04-18T09:03:32.391Z,101662.60
2024-04-18T09:06:01.563Z,101665.60
2024-04-18T09:08:29.123Z,101659.20
2024-04-18T09:11:00.800Z,101656.20
2024-04-18T09:13:27.614Z,101655.80
2024-04-18T09:15:54.496Z,101654.40
2024-04-18T09:18:23.117Z,101648.60
2024-04-18T09:20:51.988Z,101649.20
2024-04-18T09:23:19.098Z,101650.40
2024-04-18T09:25:46.094Z,101650.40
2024-04-18T09:28:20.188Z,101649.80
2024-04-18T09:30:57.330Z,101646.20
2024-04-18T09:33:26.373Z,101649.80
2024-04-18T09:36:02.847Z,101643.80
2024-04-18T09:38:35.171Z,101634.20
2024-04-18T09:41:39.982Z,101635.20
2024-04-18T09:44:20.483Z,101641.60
2024-04-18T09:46:50.687Z,101639.80
2024-04-18T09:49:19.246Z,101627.80
2024-04-18T09:51:49.210Z,101629.60
2024-04-18T09:54:18.771Z,101633.00
2024-04-18T09:56:49.818Z,101627.60
2024-04-18T09:59:17.858Z,101636.00
2024-04-18T10:01:46.035Z,101635.20
2024-04-18T10:04:12.634Z,101637.00
2024-04-18T10:06:43.993Z,101633.00
2024-04-18T10:09:18.831Z,101638.40
2024-04-18T10:11:47.792Z,101637.00
2024-04-18T10:14:15.275Z,101637.60
2024-04-18T10:16:50.434Z,101637.80
2024-04-18T10:19:23.093Z,101634.20
2024-04-18T10:22:11.089Z,101626.20
2024-04-18T10:24:50.884Z,101627.20
2024-04-18T10:27:26.084Z,101615.80
2024-04-18T10:29:57.005Z,101607.40
2024-04-18T10:32:30.115Z,101608.20
2024-04-18T10:35:01.425Z,101616.20
2024-04-18T10:37:28.870Z,101613.20
2024-04-18T10:39:58.083Z,101608.40
2024-04-18T10:42:25.727Z,101608.60
2024-04-18T10:44:52.936Z,101611.40
2024-04-18T10:47:22.138Z,101614.20
2024-04-18T10:49:52.493Z,101606.00
2024-04-18T10:52:19.223Z,101606.00
2024-04-18T10:54:47.237Z,101595.80
2024-04-18T10:57:14.441Z,101593.00
2024-04-18T10:59:47.715Z,101592.80
2024-04-18T11:02:14.802Z,101593.40
2024-04-18T11:04:43.199Z,101590.80
2024-04-18T11:07:12.642Z,101585.40
2024-04-18T11:09:41.421Z,101580.80
2024-04-18T11:12:11.016Z,101580.20
2024-04-18T11:14:39.764Z,101573.40
2024-04-18T11:17:07.414Z,101571.00
2024-04-18T11:19:35.318Z,101569.60
2024-04-18T11:22:04.859Z,101562.60
2024-04-18T11:24:34.504Z,101552.00
2024-04-18T11:27:07.868Z,101559.20
2024-04-18T11:29:35.171Z,101558.00
2024-04-18T11:32:10.819Z,101564.00
2024-04-18T11:34:43.137Z,101572.60
2024-04-18T11:37:12.761Z,101572.80
2024-04-18T11:39:44.871Z,101567.20
2024-04-18T11:42:19.777Z,101561.40
2024-04-18T11:44:46.361Z,101555.20
2024-04-18T11:47:14.670Z,101558.20
2024-04-18T11:49:43.309Z,101560.40
2024-04-18T11:52:10.363Z,101563.80
2024-04-18T11:54:38.798Z,101556.20
2024-04-18T11:57:06.647Z,101553.40
2024-04-18T11:59:35.008Z,101555.80
2024-04-18T12:02:06.203Z,101556.80
2024-04-18T12:04:33.028Z,101559.60
2024-04-18T12:06:59.672Z,101563.20
2024-04-18T12:09:27.627Z,101556.60
2024-04-18T12:11:54.712Z,101557.40
2024-04-18T12:14:21.278Z,101553.20
2024-04-18T12:16:47.994Z,101550.60
2024-04-18T12:19:14.487Z,101547.60
2024-04-18T12:21:41.181Z,101539.60
2024-04-18T12:24:07.785Z,101535.00
2024-04-18T12:26:35.580Z,101538.00
2024-04-18T12:29:03.895Z,101533.60
2024-04-18T12:31:30.892Z,101527.80
2024-04-18T12:33:57.685Z,101527.60
2024-04-18T12:36:26.707Z,101529.80
2024-04-18T12:38:53.822Z,101522.80
2024-04-18T12:41:24.806Z,101528.20
2024-04-18T12:43:52.677Z,101529.60
2024-04-18T12:46:23.653Z,101523.40
2024-04-18T12:48:52.329Z,101518.40
2024-04-18T12:51:19.114Z,101513.60
2024-04-18T12:53:46.064Z,101511.60
2024-04-18T12:56:13.683Z,101511.40
2024-04-18T12:58:41.095Z,101507.60
2024-04-18T13:01:13.286Z,101514.00
2024-04-18T13:03:42.297Z,101516.80
2024-04-18T13:06:09.832Z,101519.40
2024-04-18T13:08:38.707Z,101518.80
2024-04-18T13:11:09.121Z,101511.60
2024-04-18T13:13:35.854Z,101517.60
2024-04-18T13:16:07.861Z,101511.00
2024-04-18T13:18:37.259Z,101508.60
2024-04-18T13:21:04.330Z,101502.80
2024-04-18T13:23:30.972Z,101500.60
2024-04-18T13:26:00.483Z,101493.20
2024-04-18T13:28:27.022Z,101488.40
2024-04-18T13:30:57.624Z,101489.20
2024-04-18T13:33:26.145Z,101479.80
2024-04-18T13:35:53.954Z,101471.20
2024-04-18T13:38:22.168Z,101471.60
2024-04-18T13:40:48.784Z,101466.60
2024-04-18T13:43:15.539Z,101461.40
2024-04-18T13:45:42.166Z,101455.40
2024-04-18T13:48:11.612Z,101460.00
2024-04-18T13:50:39.644Z,101462.20
2024-04-18T13:53:08.717Z,101463.20
2024-04-18T13:55:35.276Z,101456.20
2024-04-18T13:58:02.002Z,101454.80
2024-04-18T14:00:30.477Z,101449.40
2024-04-18T14:02:58.320Z,101449.00
2024-04-18T14:05:26.041Z,101449.60
2024-04-18T14:07:52.580Z,101444.00
2024-04-18T14:10:20.421Z,101434.40
2024-04-18T14:12:48.336Z,101445.00
2024-04-18T14:15:28.294Z,101437.80
2024-04-18T14:18:14.903Z,101435.20
2024-04-18T14:20:48.914Z,101425.60
2024-04-18T14:23:16.656Z,101425.00
2024-04-18T14:25:45.641Z,101425.20
2024-04-18T14:28:23.157Z,101427.80
2024-04-18T14:30:54.746Z,101428.20
2024-04-18T14:33:21.635Z,101426.60
2024-04-18T14:35:48.176Z,101427.40
2024-04-18T14:38:15.629Z,101424.60
2024-04-18T14:40:49.934Z,101428.40
2024-04-18T14:43:27.341Z,101421.60
2024-04-18T14:45:53.885Z,101414.20
2024-04-18T14:48:21.583Z,101412.80
2024-04-18T14:50:53.122Z,101410.20
2024-04-18T14:53:26.630Z,101410.80
2024-04-18T14:55:56.241Z,101409.00
2024-04-18T14:58:23.192Z,101403.00
2024-04-18T15:00:53.484Z,101402.00
2024-04-18T15:03:21.239Z,101391.40
2024-04-18T15:05:56.582Z,101390.40
2024-04-18T15:08:24.658Z,101391.00
2024-04-18T15:10:55.310Z,101381.20
2024-04-18T15:13:24.252Z,101387.60
2024-04-18T15:15:52.058Z,101382.80
2024-04-18T15:18:20.175Z,101379.60
2024-04-18T15:20:49.256Z,101374.80
2024-04-18T15:23:16.158Z,101374.00
2024-04-18T15:25:43.960Z,101373.40
2024-04-18T15:28:10.702Z,101374.20
2024-04-18T15:30:37.723Z,101366.80
2024-04-18T15:33:05.392Z,101367.60
2024-04-18T15:35:32.489Z,101367.60
2024-04-18T15:38:01.413Z,101361.60
2024-04-18T15:40:29.117Z,101359.20
2024-04-18T15:42:56.943Z,101357.00
2024-04-18T15:45:23.802Z,101358.80
2024-04-18T15:47:52.917Z,101351.80
2024-04-18T15:50:26.396Z,101349.20
2024-04-18T15:52:54.180Z,101344.20
2024-04-18T15:55:31.214Z,101342.20
2024-04-18T15:57:58.561Z,101346.20
2024-04-18T16:00:25.471Z,101345.20
2024-04-18T16:02:54.134Z,101345.20
2024-04-18T16:05:25.318Z,101342.40
2024-04-18T16:07:52.912Z,101340.20
2024-04-18T16:10:20.506Z,101335.20
2024-04-18T16:12:50.781Z,101332.20
2024-04-18T16:15:18.643Z,101333.80
2024-04-18T16:17:46.931Z,101331.20
2024-04-18T16:20:14.252Z,101326.60
2024-04-18T16:22:41.612Z,101322.20
2024-04-18T16:25:11.077Z,101316.20
2024-04-18T16:27:37.564Z,101313.20
2024-04-18T16:30:06.320Z,101308.00
2024-04-18T16:32:34.000Z,101301.40
2024-04-18T16:35:03.492Z,101298.60
2024-04-18T16:37:42.207Z,101294.00
2024-04-18T16:40:11.192Z,101290.20
2024-04-18T16:42:41.648Z,101294.20
2024-04-18T16:45:09.330Z,101288.00
2024-04-18T16:47:38.284Z,101288.00
2024-04-18T16:50:07.849Z,101285.80
2024-04-18T16:52:36.780Z,101275.80
2024-04-18T16:55:04.934Z,101284.40
2024-04-18T16:57:35.435Z,101276.60
2024-04-18T17:00:06.111Z,101282.00
2024-04-18T17:02:40.412Z,101281.80
2024-04-18T17:05:13.469Z,101276.00
2024-04-18T17:07:44.112Z,101270.60
2024-04-18T17:10:11.860Z,101267.40
2024-04-18T17:12:39.913Z,101267.20
2024-04-18T17:15:11.673Z,101263.60
2024-04-18T17:17:40.618Z,101260.00
2024-04-18T17:20:12.816Z,101254.00
2024-04-18T17:22:43.031Z,101258.60
2024-04-18T17:25:12.883Z,101248.00
2024-04-18T17:27:40.671Z,101248.20
2024-04-18T17:30:09.460Z,101248.80
2024-04-18T17:32:39.146Z,101244.00
2024-04-18T17:35:07.082Z,101244.60
2024-04-18T17:37:37.775Z,101240.60
2024-04-18T17:40:07.065Z,101241.80
2024-04-18T17:42:35.766Z,101235.40
2024-04-18T17:45:03.860Z,101237.00
2024-04-18T17:47:38.742Z,101236.40
2024-04-18T17:50:11.189Z,101238.20
2024-04-18T17:52:38.941Z,101240.20
2024-04-18T17:55:07.207Z,101240.40
2024-04-18T17:57:37.477Z,101236.20
2024-04-18T18:00:08.908Z,101236.00
2024-04-18T18:02:40.021Z,101235.00
2024-04-18T18:05:07.943Z,101238.60
2024-04-18T18:07:38.344Z,101237.60
2024-04-18T18:10:07.898Z,101234.80
2024-04-18T18:12:38.466Z,101232.60
2024-04-18T18:15:06.549Z,101229.60
2024-04-18T18:17:37.251Z,101233.40
2024-04-18T18:20:06.539Z,101233.40
2024-04-18T18:22:34.458Z,101237.40
2024-04-18T18:25:02.331Z,101234.60
2024-04-18T18:27:32.312Z,101234.00
2024-04-18T18:30:02.451Z,101232.20
2024-04-18T18:32:32.366Z,101234.20
2024-04-18T18:35:00.655Z,101225.40
2024-04-18T18:37:31.677Z,101224.80
2024-04-18T18:40:00.948Z,101226.60
2024-04-18T18:42:31.048Z,101223.00
2024-04-18T18:44:58.744Z,101222.20
2024-04-18T18:47:26.940Z,101228.60
2024-04-18T18:49:55.341Z,101225.80
2024-04-18T18:52:23.832Z,101226.00
2024-04-18T18:54:51.510Z,101221.80
2024-04-18T18:57:22.387Z,101219.60
2024-04-18T18:59:50.075Z,101218.80
2024-04-18T19:02:18.564Z,101221.40
2024-04-18T19:04:46.547Z,101226.00
2024-04-18T19:07:21.373Z,101223.60
2024-04-18T19:09:49.383Z,101220.60
2024-04-18T19:12:17.034Z,101221.40
2024-04-18T19:14:44.760Z,101221.40
2024-04-18T19:17:14.733Z,101215.60
2024-04-18T19:19:43.678Z,101214.20
2024-04-18T19:22:11.962Z,101211.60
2024-04-18T19:24:41.212Z,101211.40
2024-04-18T19:27:08.854Z,101209.00
2024-04-18T19:29:46.399Z,101205.00
2024-04-18T19:32:20.500Z,101203.60
2024-04-18T19:34:48.245Z,101207.00
2024-04-18T19:37:20.147Z,101202.20
2024-04-18T19:39:48.807Z,101202.80
2024-04-18T19:42:17.686Z,101195.60
2024-04-18T19:44:45.489Z,101197.60
2024-04-18T19:47:14.659Z,101198.00
2024-04-18T19:49:43.398Z,101201.00
2024-04-18T19:52:11.631Z,101200.40
2024-04-18T19:54:43.568Z,101199.40
2024-04-18T19:57:11.478Z,101196.40
2024-04-18T19:59:41.275Z,101201.60
2024-04-18T20:02:11.935Z,101200.40
2024-04-18T20:04:42.036Z,101204.00
2024-04-18T20:07:11.610Z,101204.80
2024-04-18T20:09:39.377Z,101205.20
2024-04-18T20:12:10.003Z,101205.00
2024-04-18T20:14:38.277Z,101202.40
2024-04-18T20:17:10.051Z,101201.80
2024-04-18T20:19:39.321Z,101194.20
2024-04-18T20:22:08.533Z,101195.80
2024-04-18T20:24:36.769Z,101188.80
2024-04-18T20:27:09.554Z,101189.80
2024-04-18T20:29:37.888Z,101188.20
2024-04-18T20:32:06.324Z,101183.80
2024-04-18T20:34:34.093Z,101180.80
2024-04-18T20:37:04.166Z,101176.60
2024-04-18T20:39:32.501Z,101172.00
2024-04-18T20:42:01.710Z,101174.60
2024-04-18T20:44:29.298Z,101169.40
2024-04-18T20:46:57.455Z,101169.40
2024-04-18T20:49:27.303Z,101174.80
2024-04-18T20:51:57.688Z,101171.80
2024-04-18T20:54:25.317Z,101168.20
2024-04-18T20:56:58.576Z,101171.40
2024-04-18T20:59:30.283Z,101173.00
2024-04-18T21:02:02.035Z,101171.20
2024-04-18T21:04:30.228Z,101169.40
2024-04-18T21:06:57.873Z,101171.80
2024-04-18T21:09:25.695Z,101164.60
2024-04-18T21:11:53.896Z,101160.00
2024-04-18T21:14:23.152Z,101156.40
2024-04-18T21:16:52.276Z,101158.60
2024-04-18T21:19:22.783Z,101158.00
2024-04-18T21:21:53.476Z,101158.60
2024-04-18T21:24:23.581Z,101154.80
2024-04-18T21:26:51.823Z,101152.20
2024-04-18T21:29:20.934Z,101151.80
2024-04-18T21:31:49.389Z,101149.60
2024-04-18T21:34:19.678Z,101147.40
2024-04-18T21:36:48.452Z,101147.60
2024-04-18T21:39:16.449Z,101144.40
2024-04-18T21:41:46.933Z,101142.80
2024-04-18T21:44:16.562Z,101142.20
2024-04-18T21:46:45.571Z,101145.80
2024-04-18T21:49:15.961Z,101144.80
2024-04-18T21:51:43.697Z,101138.80
2024-04-18T21:54:13.763Z,101137.80
2024-04-18T21:56:41.325Z,101133.40
2024-04-18T21:59:09.216Z,101125.80
2024-04-18T22:01:36.876Z,101125.20
2024-04-18T22:04:05.056Z,101125.80
2024-04-18T22:06:34.695Z,101121.80
2024-04-18T22:09:03.230Z,101123.40
2024-04-18T22:11:31.994Z,101117.00
2024-04-18T22:14:00.152Z,101119.40
2024-04-18T22:16:29.883Z,101117.00
2024-04-18T22:19:00.898Z,101117.40
2024-04-18T22:21:29.048Z,101111.80
2024-04-18T22:23:58.412Z,101114.80
2024-04-18T22:26:26.552Z,101107.00
2024-04-18T22:28:54.166Z,101107.40
2024-04-18T22:31:22.031Z,101114.60
2024-04-18T22:33:50.288Z,101115.80
2024-04-18T22:36:18.435Z,101113.20
2024-04-18T22:38:48.631Z,101109.20
2024-04-18T22:41:17.659Z,101108.20
2024-04-18T22:43:46.181Z,101106.80
2024-04-18T22:46:14.113Z,101102.80
2024-04-18T22:48:42.214Z,101099.20
2024-04-18T22:51:10.065Z,101099.00
2024-04-18T22:53:42.580Z,101097.00
2024-04-18T22:56:10.632Z,101089.20
2024-04-18T22:58:39.703Z,101087.60
2024-04-18T23:01:11.537Z,101088.80
2024-04-18T23:03:41.030Z,101084.40
2024-04-18T23:06:08.879Z,101084.40
2024-04-18T23:08:37.156Z,101081.60
2024-04-18T23:11:06.119Z,101080.00
2024-04-18T23:13:36.696Z,101080.00
2024-04-18T23:16:06.146Z,101081.20
2024-04-18T23:18:34.009Z,101081.40
2024-04-18T23:21:01.922Z,101079.00
2024-04-18T23:23:30.015Z,101079.80
2024-04-18T23:25:58.067Z,101085.80
2024-04-18T23:28:27.140Z,101089.00
2024-04-18T23:30:56.882Z,101092.40
2024-04-18T23:33:25.777Z,101100.80
2024-04-18T23:35:55.852Z,101104.40
2024-04-18T23:38:24.131Z,101100.60
2024-04-18T23:40:51.931Z,101102.60
2024-04-18T23:43:21.572Z,101108.60
2024-04-18T23:45:49.845Z,101107.40
2024-04-18T23:48:20.974Z,101111.60
2024-04-18T23:50:49.785Z,101112.80
2024-04-18T23:53:18.179Z,101114.40
2024-04-18T23:55:49.819Z,101117.40
2024-04-18T23:58:18.026Z,101114.00
